sensor_id;sensor_type;location;lat;lon;timestamp;P1;durP1;ratioP1;P2;durP2;ratioP2
19883;SDS011;10104;50.732;10.174;2023-11-21T00:00:39;4.47;;;2.20;;
19883;SDS011;10104;50.732;10.174;2023-11-21T00:03:20;3.17;;;1.90;;
19883;SDS011;10104;50.732;10.174;2023-11-21T00:06:03;5.30;;;2.00;;
19883;SDS011;10104;50.732;10.174;2023-11-21T00:08:44;3.03;;;1.60;;
19883;SDS011;10104;50.732;10.174;2023-11-21T00:11:25;2.23;;;1.60;;
19883;SDS011;10104;50.732;10.174;2023-11-21T00:14:05;1.70;;;1.20;;
19883;SDS011;10104;50.732;10.174;2023-11-21T00:16:45;5.93;;;2.40;;
19883;SDS011;10104;50.732;10.174;2023-11-21T00:19:26;3.33;;;1.57;;
19883;SDS011;10104;50.732;10.174;2023-11-21T00:22:06;2.90;;;1.90;;
19883;SDS011;10104;50.732;10.174;2023-11-21T00:24:47;5.90;;;2.77;;
19883;SDS011;10104;50.732;10.174;2023-11-21T00:27:28;5.93;;;2.43;;
19883;SDS011;10104;50.732;10.174;2023-11-21T00:30:08;4.23;;;2.33;;
19883;SDS011;10104;50.732;10.174;2023-11-21T00:32:49;5.90;;;2.40;;
19883;SDS011;10104;50.732;10.174;2023-11-21T00:35:29;3.67;;;2.30;;
19883;SDS011;10104;50.732;10.174;2023-11-21T00:38:09;7.63;;;4.80;;
19883;SDS011;10104;50.732;10.174;2023-11-21T00:40:49;9.80;;;6.10;;
19883;SDS011;10104;50.732;10.174;2023-11-21T00:43:30;12.93;;;6.73;;
19883;SDS011;10104;50.732;10.174;2023-11-21T00:46:10;7.67;;;4.20;;
19883;SDS011;10104;50.732;10.174;2023-11-21T00:48:50;8.40;;;3.37;;
19883;SDS011;10104;50.732;10.174;2023-11-21T00:51:30;5.57;;;3.20;;
19883;SDS011;10104;50.732;10.174;2023-11-21T00:54:11;5.47;;;1.83;;
19883;SDS011;10104;50.732;10.174;2023-11-21T00:56:51;2.97;;;1.97;;
19883;SDS011;10104;50.732;10.174;2023-11-21T00:59:33;3.00;;;1.90;;
19883;SDS011;10104;50.732;10.174;2023-11-21T01:02:13;4.83;;;2.47;;
19883;SDS011;10104;50.732;10.174;2023-11-21T01:04:53;5.30;;;2.73;;
19883;SDS011;10104;50.732;10.174;2023-11-21T01:07:34;4.83;;;2.63;;
19883;SDS011;10104;50.732;10.174;2023-11-21T01:10:14;4.23;;;2.50;;
19883;SDS011;10104;50.732;10.174;2023-11-21T01:12:54;11.10;;;6.00;;
19883;SDS011;10104;50.732;10.174;2023-11-21T01:15:34;12.27;;;6.43;;
19883;SDS011;10104;50.732;10.174;2023-11-21T01:18:14;20.43;;;9.97;;
19883;SDS011;10104;50.732;10.174;2023-11-21T01:20:54;45.93;;;25.20;;
19883;SDS011;10104;50.732;10.174;2023-11-21T01:23:34;40.37;;;21.40;;
19883;SDS011;10104;50.732;10.174;2023-11-21T01:26:14;33.27;;;18.67;;
19883;SDS011;10104;50.732;10.174;2023-11-21T01:28:54;20.37;;;11.30;;
19883;SDS011;10104;50.732;10.174;2023-11-21T01:31:35;9.63;;;5.03;;
19883;SDS011;10104;50.732;10.174;2023-11-21T01:34:15;6.97;;;2.77;;
19883;SDS011;10104;50.732;10.174;2023-11-21T01:36:55;4.63;;;1.80;;
19883;SDS011;10104;50.732;10.174;2023-11-21T01:39:36;3.87;;;2.20;;
19883;SDS011;10104;50.732;10.174;2023-11-21T01:42:19;5.17;;;2.17;;
19883;SDS011;10104;50.732;10.174;2023-11-21T01:44:59;3.50;;;1.47;;
19883;SDS011;10104;50.732;10.174;2023-11-21T01:47:39;2.03;;;1.60;;
19883;SDS011;10104;50.732;10.174;2023-11-21T01:50:21;2.60;;;1.90;;
19883;SDS011;10104;50.732;10.174;2023-11-21T01:53:02;5.07;;;1.80;;
19883;SDS011;10104;50.732;10.174;2023-11-21T01:55:43;4.80;;;2.10;;
19883;SDS011;10104;50.732;10.174;2023-11-21T01:58:26;3.33;;;2.30;;
19883;SDS011;10104;50.732;10.174;2023-11-21T02:01:06;4.17;;;2.50;;
19883;SDS011;10104;50.732;10.174;2023-11-21T02:03:47;5.90;;;3.33;;
19883;SDS011;10104;50.732;10.174;2023-11-21T02:06:27;5.77;;;4.20;;
19883;SDS011;10104;50.732;10.174;2023-11-21T02:09:11;2.53;;;1.87;;
19883;SDS011;10104;50.732;10.174;2023-11-21T02:11:55;5.17;;;2.83;;
19883;SDS011;10104;50.732;10.174;2023-11-21T02:14:38;8.93;;;5.27;;
19883;SDS011;10104;50.732;10.174;2023-11-21T02:17:18;6.83;;;3.73;;
19883;SDS011;10104;50.732;10.174;2023-11-21T02:19:58;4.90;;;2.63;;
19883;SDS011;10104;50.732;10.174;2023-11-21T02:22:39;4.20;;;2.73;;
19883;SDS011;10104;50.732;10.174;2023-11-21T02:25:21;7.50;;;2.73;;
19883;SDS011;10104;50.732;10.174;2023-11-21T02:28:01;5.40;;;2.63;;
19883;SDS011;10104;50.732;10.174;2023-11-21T02:30:43;2.43;;;1.90;;
19883;SDS011;10104;50.732;10.174;2023-11-21T02:33:24;3.40;;;2.00;;
19883;SDS011;10104;50.732;10.174;2023-11-21T02:36:04;4.63;;;2.00;;
19883;SDS011;10104;50.732;10.174;2023-11-21T02:38:45;2.43;;;1.67;;
19883;SDS011;10104;50.732;10.174;2023-11-21T02:41:26;3.10;;;1.80;;
19883;SDS011;10104;50.732;10.174;2023-11-21T02:44:06;5.63;;;2.10;;
19883;SDS011;10104;50.732;10.174;2023-11-21T02:46:46;3.73;;;2.27;;
19883;SDS011;10104;50.732;10.174;2023-11-21T02:49:27;8.60;;;2.53;;
19883;SDS011;10104;50.732;10.174;2023-11-21T02:52:08;4.90;;;3.13;;
19883;SDS011;10104;50.732;10.174;2023-11-21T02:54:49;3.67;;;1.80;;
19883;SDS011;10104;50.732;10.174;2023-11-21T02:57:29;4.33;;;2.10;;
19883;SDS011;10104;50.732;10.174;2023-11-21T03:00:10;3.73;;;2.10;;
19883;SDS011;10104;50.732;10.174;2023-11-21T03:02:54;2.93;;;1.90;;
19883;SDS011;10104;50.732;10.174;2023-11-21T03:05:35;2.93;;;2.13;;
19883;SDS011;10104;50.732;10.174;2023-11-21T03:08:17;3.70;;;2.17;;
19883;SDS011;10104;50.732;10.174;2023-11-21T03:10:57;4.47;;;2.23;;
19883;SDS011;10104;50.732;10.174;2023-11-21T03:13:37;4.90;;;2.30;;
19883;SDS011;10104;50.732;10.174;2023-11-21T03:16:18;2.80;;;1.80;;
19883;SDS011;10104;50.732;10.174;2023-11-21T03:18:59;3.30;;;1.97;;
19883;SDS011;10104;50.732;10.174;2023-11-21T03:21:39;4.37;;;2.30;;
19883;SDS011;10104;50.732;10.174;2023-11-21T03:24:20;8.20;;;2.07;;
19883;SDS011;10104;50.732;10.174;2023-11-21T03:27:00;4.03;;;2.63;;
19883;SDS011;10104;50.732;10.174;2023-11-21T03:29:40;5.07;;;2.90;;
19883;SDS011;10104;50.732;10.174;2023-11-21T03:32:20;3.37;;;2.60;;
19883;SDS011;10104;50.732;10.174;2023-11-21T03:35:00;4.93;;;1.90;;
19883;SDS011;10104;50.732;10.174;2023-11-21T03:37:43;2.83;;;1.80;;
19883;SDS011;10104;50.732;10.174;2023-11-21T03:40:24;7.10;;;1.80;;
19883;SDS011;10104;50.732;10.174;2023-11-21T03:43:03;3.10;;;1.60;;
19883;SDS011;10104;50.732;10.174;2023-11-21T03:45:44;3.07;;;1.40;;
19883;SDS011;10104;50.732;10.174;2023-11-21T03:48:24;2.77;;;1.60;;
19883;SDS011;10104;50.732;10.174;2023-11-21T03:51:04;2.27;;;1.50;;
19883;SDS011;10104;50.732;10.174;2023-11-21T03:53:44;3.07;;;1.80;;
19883;SDS011;10104;50.732;10.174;2023-11-21T03:56:25;4.23;;;1.73;;
19883;SDS011;10104;50.732;10.174;2023-11-21T03:59:05;3.43;;;1.40;;
19883;SDS011;10104;50.732;10.174;2023-11-21T04:01:45;2.40;;;1.70;;
19883;SDS011;10104;50.732;10.174;2023-11-21T04:04:25;2.53;;;1.57;;
19883;SDS011;10104;50.732;10.174;2023-11-21T04:07:05;3.20;;;1.60;;
19883;SDS011;10104;50.732;10.174;2023-11-21T04:09:46;2.40;;;1.60;;
19883;SDS011;10104;50.732;10.174;2023-11-21T04:12:26;3.47;;;1.57;;
19883;SDS011;10104;50.732;10.174;2023-11-21T04:15:06;2.67;;;1.50;;
19883;SDS011;10104;50.732;10.174;2023-11-21T04:17:49;1.90;;;1.40;;
19883;SDS011;10104;50.732;10.174;2023-11-21T04:20:29;4.87;;;1.70;;
19883;SDS011;10104;50.732;10.174;2023-11-21T04:23:09;1.73;;;1.63;;
19883;SDS011;10104;50.732;10.174;2023-11-21T04:25:50;2.67;;;1.40;;
19883;SDS011;10104;50.732;10.174;2023-11-21T04:28:30;3.20;;;1.90;;
19883;SDS011;10104;50.732;10.174;2023-11-21T04:31:10;3.27;;;1.70;;
19883;SDS011;10104;50.732;10.174;2023-11-21T04:33:50;3.43;;;1.60;;
19883;SDS011;10104;50.732;10.174;2023-11-21T04:36:31;3.83;;;1.70;;
19883;SDS011;10104;50.732;10.174;2023-11-21T04:39:11;3.37;;;2.00;;
19883;SDS011;10104;50.732;10.174;2023-11-21T04:41:52;4.47;;;1.73;;
19883;SDS011;10104;50.732;10.174;2023-11-21T04:44:32;3.63;;;1.60;;
19883;SDS011;10104;50.732;10.174;2023-11-21T04:47:12;2.33;;;1.73;;
19883;SDS011;10104;50.732;10.174;2023-11-21T04:49:53;4.17;;;1.80;;
19883;SDS011;10104;50.732;10.174;2023-11-21T04:52:33;2.37;;;1.63;;
19883;SDS011;10104;50.732;10.174;2023-11-21T04:55:13;5.63;;;2.90;;
19883;SDS011;10104;50.732;10.174;2023-11-21T04:57:53;5.43;;;2.40;;
19883;SDS011;10104;50.732;10.174;2023-11-21T05:00:33;2.57;;;1.77;;
19883;SDS011;10104;50.732;10.174;2023-11-21T05:03:14;3.17;;;2.00;;
19883;SDS011;10104;50.732;10.174;2023-11-21T05:05:54;2.60;;;1.90;;
19883;SDS011;10104;50.732;10.174;2023-11-21T05:08:35;2.77;;;1.90;;
19883;SDS011;10104;50.732;10.174;2023-11-21T05:11:26;3.60;;;2.30;;
19883;SDS011;10104;50.732;10.174;2023-11-21T05:14:07;5.07;;;2.13;;
19883;SDS011;10104;50.732;10.174;2023-11-21T05:16:48;3.57;;;2.00;;
19883;SDS011;10104;50.732;10.174;2023-11-21T05:19:31;6.10;;;2.00;;
19883;SDS011;10104;50.732;10.174;2023-11-21T05:22:12;3.93;;;2.27;;
19883;SDS011;10104;50.732;10.174;2023-11-21T05:24:53;2.87;;;2.23;;
19883;SDS011;10104;50.732;10.174;2023-11-21T05:27:33;3.67;;;2.50;;
19883;SDS011;10104;50.732;10.174;2023-11-21T05:30:14;4.03;;;2.83;;
19883;SDS011;10104;50.732;10.174;2023-11-21T05:32:54;3.43;;;2.57;;
19883;SDS011;10104;50.732;10.174;2023-11-21T05:35:35;5.33;;;2.27;;
19883;SDS011;10104;50.732;10.174;2023-11-21T05:38:15;4.63;;;2.67;;
19883;SDS011;10104;50.732;10.174;2023-11-21T05:40:55;3.67;;;2.30;;
19883;SDS011;10104;50.732;10.174;2023-11-21T05:43:36;6.07;;;2.43;;
19883;SDS011;10104;50.732;10.174;2023-11-21T05:46:16;4.13;;;2.07;;
19883;SDS011;10104;50.732;10.174;2023-11-21T05:48:56;3.83;;;2.73;;
19883;SDS011;10104;50.732;10.174;2023-11-21T05:51:37;8.47;;;6.30;;
19883;SDS011;10104;50.732;10.174;2023-11-21T05:54:18;16.77;;;12.57;;
19883;SDS011;10104;50.732;10.174;2023-11-21T05:56:59;13.43;;;9.20;;
19883;SDS011;10104;50.732;10.174;2023-11-21T05:59:39;7.07;;;5.27;;
19883;SDS011;10104;50.732;10.174;2023-11-21T06:02:19;4.80;;;3.50;;
19883;SDS011;10104;50.732;10.174;2023-11-21T06:05:00;5.27;;;3.17;;
19883;SDS011;10104;50.732;10.174;2023-11-21T06:07:40;7.37;;;4.40;;
19883;SDS011;10104;50.732;10.174;2023-11-21T06:10:21;4.80;;;3.57;;
19883;SDS011;10104;50.732;10.174;2023-11-21T06:13:01;4.10;;;3.13;;
19883;SDS011;10104;50.732;10.174;2023-11-21T06:15:44;7.17;;;4.17;;
19883;SDS011;10104;50.732;10.174;2023-11-21T06:18:24;6.03;;;3.37;;
19883;SDS011;10104;50.732;10.174;2023-11-21T06:21:04;5.30;;;4.03;;
19883;SDS011;10104;50.732;10.174;2023-11-21T06:23:44;5.67;;;4.47;;
19883;SDS011;10104;50.732;10.174;2023-11-21T06:26:25;6.57;;;3.90;;
19883;SDS011;10104;50.732;10.174;2023-11-21T06:29:06;5.73;;;3.80;;
19883;SDS011;10104;50.732;10.174;2023-11-21T06:31:47;6.33;;;3.17;;
19883;SDS011;10104;50.732;10.174;2023-11-21T06:34:27;5.23;;;3.03;;
19883;SDS011;10104;50.732;10.174;2023-11-21T06:37:08;4.17;;;2.87;;
19883;SDS011;10104;50.732;10.174;2023-11-21T06:39:51;4.67;;;3.23;;
19883;SDS011;10104;50.732;10.174;2023-11-21T06:42:34;4.27;;;2.70;;
19883;SDS011;10104;50.732;10.174;2023-11-21T06:45:15;6.10;;;2.73;;
19883;SDS011;10104;50.732;10.174;2023-11-21T06:47:55;4.13;;;2.50;;
19883;SDS011;10104;50.732;10.174;2023-11-21T06:50:35;4.43;;;2.87;;
19883;SDS011;10104;50.732;10.174;2023-11-21T06:53:16;5.00;;;3.40;;
19883;SDS011;10104;50.732;10.174;2023-11-21T06:55:56;3.80;;;2.53;;
19883;SDS011;10104;50.732;10.174;2023-11-21T06:58:36;3.90;;;3.17;;
19883;SDS011;10104;50.732;10.174;2023-11-21T07:01:17;6.80;;;4.17;;
19883;SDS011;10104;50.732;10.174;2023-11-21T07:03:57;8.60;;;4.93;;
19883;SDS011;10104;50.732;10.174;2023-11-21T07:06:37;6.47;;;4.60;;
19883;SDS011;10104;50.732;10.174;2023-11-21T07:09:17;6.10;;;3.20;;
19883;SDS011;10104;50.732;10.174;2023-11-21T07:12:02;3.97;;;2.93;;
19883;SDS011;10104;50.732;10.174;2023-11-21T07:14:43;17.90;;;7.07;;
19883;SDS011;10104;50.732;10.174;2023-11-21T07:17:25;17.33;;;7.17;;
19883;SDS011;10104;50.732;10.174;2023-11-21T07:20:05;17.77;;;7.97;;
19883;SDS011;10104;50.732;10.174;2023-11-21T07:22:46;13.67;;;7.83;;
19883;SDS011;10104;50.732;10.174;2023-11-21T07:25:27;18.60;;;8.07;;
19883;SDS011;10104;50.732;10.174;2023-11-21T07:28:07;32.93;;;9.40;;
19883;SDS011;10104;50.732;10.174;2023-11-21T07:30:47;19.30;;;10.03;;
19883;SDS011;10104;50.732;10.174;2023-11-21T07:33:27;16.53;;;7.03;;
19883;SDS011;10104;50.732;10.174;2023-11-21T07:36:08;25.70;;;6.20;;
19883;SDS011;10104;50.732;10.174;2023-11-21T07:38:49;52.37;;;6.90;;
19883;SDS011;10104;50.732;10.174;2023-11-21T07:41:30;29.33;;;5.80;;
19883;SDS011;10104;50.732;10.174;2023-11-21T07:44:11;40.43;;;5.93;;
19883;SDS011;10104;50.732;10.174;2023-11-21T07:46:51;52.00;;;5.90;;
19883;SDS011;10104;50.732;10.174;2023-11-21T07:49:31;30.63;;;5.60;;
19883;SDS011;10104;50.732;10.174;2023-11-21T07:52:12;71.97;;;7.27;;
19883;SDS011;10104;50.732;10.174;2023-11-21T07:54:54;85.03;;;8.07;;
19883;SDS011;10104;50.732;10.174;2023-11-21T07:57:35;38.00;;;7.60;;
19883;SDS011;10104;50.732;10.174;2023-11-21T08:00:15;22.33;;;6.17;;
19883;SDS011;10104;50.732;10.174;2023-11-21T08:02:56;13.80;;;7.23;;
19883;SDS011;10104;50.732;10.174;2023-11-21T08:05:36;38.73;;;5.77;;
19883;SDS011;10104;50.732;10.174;2023-11-21T08:08:17;17.80;;;5.70;;
19883;SDS011;10104;50.732;10.174;2023-11-21T08:10:58;29.93;;;5.37;;
19883;SDS011;10104;50.732;10.174;2023-11-21T08:13:38;27.13;;;6.57;;
19883;SDS011;10104;50.732;10.174;2023-11-21T08:16:18;27.73;;;5.63;;
19883;SDS011;10104;50.732;10.174;2023-11-21T08:18:58;14.00;;;6.00;;
19883;SDS011;10104;50.732;10.174;2023-11-21T08:21:39;24.63;;;5.63;;
19883;SDS011;10104;50.732;10.174;2023-11-21T08:24:20;48.60;;;5.47;;
19883;SDS011;10104;50.732;10.174;2023-11-21T08:27:01;38.90;;;5.83;;
19883;SDS011;10104;50.732;10.174;2023-11-21T08:29:42;23.13;;;6.10;;
19883;SDS011;10104;50.732;10.174;2023-11-21T08:32:22;21.60;;;5.73;;
19883;SDS011;10104;50.732;10.174;2023-11-21T08:35:02;21.97;;;5.47;;
19883;SDS011;10104;50.732;10.174;2023-11-21T08:37:43;19.90;;;4.90;;
19883;SDS011;10104;50.732;10.174;2023-11-21T08:40:23;34.10;;;5.80;;
19883;SDS011;10104;50.732;10.174;2023-11-21T08:43:05;33.23;;;6.27;;
19883;SDS011;10104;50.732;10.174;2023-11-21T08:45:48;25.53;;;5.17;;
19883;SDS011;10104;50.732;10.174;2023-11-21T08:48:28;16.73;;;4.47;;
19883;SDS011;10104;50.732;10.174;2023-11-21T08:51:10;20.87;;;5.07;;
19883;SDS011;10104;50.732;10.174;2023-11-21T08:53:54;32.47;;;4.80;;
19883;SDS011;10104;50.732;10.174;2023-11-21T08:56:34;53.87;;;6.27;;
19883;SDS011;10104;50.732;10.174;2023-11-21T08:59:15;61.83;;;5.73;;
19883;SDS011;10104;50.732;10.174;2023-11-21T09:01:55;36.80;;;4.70;;
19883;SDS011;10104;50.732;10.174;2023-11-21T09:04:36;9.93;;;5.13;;
19883;SDS011;10104;50.732;10.174;2023-11-21T09:07:17;56.30;;;5.67;;
19883;SDS011;10104;50.732;10.174;2023-11-21T09:09:58;32.43;;;5.43;;
19883;SDS011;10104;50.732;10.174;2023-11-21T09:12:39;20.27;;;5.63;;
19883;SDS011;10104;50.732;10.174;2023-11-21T09:15:19;22.13;;;5.37;;
19883;SDS011;10104;50.732;10.174;2023-11-21T09:18:00;57.13;;;5.57;;
19883;SDS011;10104;50.732;10.174;2023-11-21T09:20:42;18.70;;;5.30;;
19883;SDS011;10104;50.732;10.174;2023-11-21T09:23:24;12.43;;;5.23;;
19883;SDS011;10104;50.732;10.174;2023-11-21T09:26:04;7.63;;;4.73;;
19883;SDS011;10104;50.732;10.174;2023-11-21T09:28:45;9.20;;;5.07;;
19883;SDS011;10104;50.732;10.174;2023-11-21T09:31:27;7.50;;;4.80;;
19883;SDS011;10104;50.732;10.174;2023-11-21T09:34:08;7.17;;;4.63;;
19883;SDS011;10104;50.732;10.174;2023-11-21T09:36:48;8.37;;;4.97;;
19883;SDS011;10104;50.732;10.174;2023-11-21T09:39:29;12.07;;;5.57;;
19883;SDS011;10104;50.732;10.174;2023-11-21T09:42:25;8.47;;;5.63;;
19883;SDS011;10104;50.732;10.174;2023-11-21T09:48:20;15.10;;;6.60;;
19883;SDS011;10104;50.732;10.174;2023-11-21T09:51:01;14.53;;;6.30;;
19883;SDS011;10104;50.732;10.174;2023-11-21T09:53:43;13.07;;;6.83;;
19883;SDS011;10104;50.732;10.174;2023-11-21T09:56:27;14.00;;;6.13;;
19883;SDS011;10104;50.732;10.174;2023-11-21T09:59:11;19.00;;;6.50;;
19883;SDS011;10104;50.732;10.174;2023-11-21T10:01:55;14.23;;;7.60;;
19883;SDS011;10104;50.732;10.174;2023-11-21T10:04:38;14.97;;;7.13;;
19883;SDS011;10104;50.732;10.174;2023-11-21T10:07:18;16.57;;;7.37;;
19883;SDS011;10104;50.732;10.174;2023-11-21T10:10:00;13.70;;;7.00;;
19883;SDS011;10104;50.732;10.174;2023-11-21T10:12:41;16.40;;;7.20;;
19883;SDS011;10104;50.732;10.174;2023-11-21T10:15:23;12.00;;;6.57;;
19883;SDS011;10104;50.732;10.174;2023-11-21T10:18:07;9.57;;;6.10;;
19883;SDS011;10104;50.732;10.174;2023-11-21T10:20:49;10.57;;;6.63;;
19883;SDS011;10104;50.732;10.174;2023-11-21T10:23:34;12.23;;;6.80;;
19883;SDS011;10104;50.732;10.174;2023-11-21T10:26:14;11.73;;;6.43;;
19883;SDS011;10104;50.732;10.174;2023-11-21T10:29:10;13.87;;;6.20;;
19883;SDS011;10104;50.732;10.174;2023-11-21T10:31:56;10.23;;;5.57;;
19883;SDS011;10104;50.732;10.174;2023-11-21T10:34:39;13.40;;;5.93;;
19883;SDS011;10104;50.732;10.174;2023-11-21T10:37:21;8.57;;;5.40;;
19883;SDS011;10104;50.732;10.174;2023-11-21T10:40:01;12.23;;;5.20;;
19883;SDS011;10104;50.732;10.174;2023-11-21T10:42:42;13.73;;;6.30;;
19883;SDS011;10104;50.732;10.174;2023-11-21T10:45:22;14.27;;;5.53;;
19883;SDS011;10104;50.732;10.174;2023-11-21T10:48:06;13.60;;;6.13;;
19883;SDS011;10104;50.732;10.174;2023-11-21T10:50:57;14.90;;;6.90;;
19883;SDS011;10104;50.732;10.174;2023-11-21T10:53:40;13.63;;;6.47;;
19883;SDS011;10104;50.732;10.174;2023-11-21T10:56:24;12.07;;;6.07;;
19883;SDS011;10104;50.732;10.174;2023-11-21T10:59:07;12.10;;;6.17;;
19883;SDS011;10104;50.732;10.174;2023-11-21T11:01:51;11.90;;;5.73;;
19883;SDS011;10104;50.732;10.174;2023-11-21T11:04:33;12.53;;;6.33;;
19883;SDS011;10104;50.732;10.174;2023-11-21T11:07:18;14.13;;;5.67;;
19883;SDS011;10104;50.732;10.174;2023-11-21T11:10:02;10.50;;;5.70;;
19883;SDS011;10104;50.732;10.174;2023-11-21T11:12:44;9.17;;;5.87;;
19883;SDS011;10104;50.732;10.174;2023-11-21T11:15:27;10.83;;;5.60;;
19883;SDS011;10104;50.732;10.174;2023-11-21T11:18:08;10.87;;;6.33;;
19883;SDS011;10104;50.732;10.174;2023-11-21T11:20:48;11.27;;;6.00;;
19883;SDS011;10104;50.732;10.174;2023-11-21T11:29:35;13.07;;;6.37;;
19883;SDS011;10104;50.732;10.174;2023-11-21T11:32:27;12.83;;;7.37;;
19883;SDS011;10104;50.732;10.174;2023-11-21T11:35:34;12.17;;;6.70;;
19883;SDS011;10104;50.732;10.174;2023-11-21T11:38:45;11.97;;;5.57;;
19883;SDS011;10104;50.732;10.174;2023-11-21T11:41:26;11.80;;;7.07;;
19883;SDS011;10104;50.732;10.174;2023-11-21T11:44:46;10.73;;;7.27;;
19883;SDS011;10104;50.732;10.174;2023-11-21T11:47:29;11.20;;;6.70;;
19883;SDS011;10104;50.732;10.174;2023-11-21T11:50:17;14.97;;;7.07;;
19883;SDS011;10104;50.732;10.174;2023-11-21T11:53:13;13.47;;;7.67;;
19883;SDS011;10104;50.732;10.174;2023-11-21T11:56:10;16.23;;;7.47;;
19883;SDS011;10104;50.732;10.174;2023-11-21T11:59:06;17.63;;;7.57;;
19883;SDS011;10104;50.732;10.174;2023-11-21T12:01:49;12.13;;;7.13;;
19883;SDS011;10104;50.732;10.174;2023-11-21T12:04:30;12.43;;;7.10;;
19883;SDS011;10104;50.732;10.174;2023-11-21T12:07:15;12.00;;;7.03;;
19883;SDS011;10104;50.732;10.174;2023-11-21T12:09:55;14.10;;;7.60;;
19883;SDS011;10104;50.732;10.174;2023-11-21T12:12:35;16.47;;;7.60;;
19883;SDS011;10104;50.732;10.174;2023-11-21T12:15:16;12.17;;;6.27;;
19883;SDS011;10104;50.732;10.174;2023-11-21T12:17:57;11.43;;;6.43;;
19883;SDS011;10104;50.732;10.174;2023-11-21T12:20:40;12.93;;;7.37;;
19883;SDS011;10104;50.732;10.174;2023-11-21T12:23:23;9.93;;;6.67;;
19883;SDS011;10104;50.732;10.174;2023-11-21T12:26:03;11.10;;;7.13;;
19883;SDS011;10104;50.732;10.174;2023-11-21T12:28:43;12.50;;;7.10;;
19883;SDS011;10104;50.732;10.174;2023-11-21T12:31:23;16.57;;;7.87;;
19883;SDS011;10104;50.732;10.174;2023-11-21T12:34:05;10.70;;;6.83;;
19883;SDS011;10104;50.732;10.174;2023-11-21T12:36:46;12.17;;;6.53;;
19883;SDS011;10104;50.732;10.174;2023-11-21T12:39:26;11.63;;;6.70;;
19883;SDS011;10104;50.732;10.174;2023-11-21T12:42:07;12.93;;;7.13;;
19883;SDS011;10104;50.732;10.174;2023-11-21T12:44:48;11.73;;;7.07;;
19883;SDS011;10104;50.732;10.174;2023-11-21T12:47:45;14.77;;;6.67;;
19883;SDS011;10104;50.732;10.174;2023-11-21T12:50:29;15.93;;;7.40;;
19883;SDS011;10104;50.732;10.174;2023-11-21T12:53:14;11.63;;;7.27;;
19883;SDS011;10104;50.732;10.174;2023-11-21T12:55:56;11.60;;;6.53;;
19883;SDS011;10104;50.732;10.174;2023-11-21T12:58:38;11.47;;;7.23;;
19883;SDS011;10104;50.732;10.174;2023-11-21T13:01:20;17.67;;;8.00;;
19883;SDS011;10104;50.732;10.174;2023-11-21T13:04:02;13.47;;;6.77;;
19883;SDS011;10104;50.732;10.174;2023-11-21T13:06:47;13.60;;;7.13;;
19883;SDS011;10104;50.732;10.174;2023-11-21T13:09:27;11.40;;;7.63;;
19883;SDS011;10104;50.732;10.174;2023-11-21T13:12:08;14.57;;;8.57;;
19883;SDS011;10104;50.732;10.174;2023-11-21T13:14:50;17.37;;;8.83;;
19883;SDS011;10104;50.732;10.174;2023-11-21T13:17:30;17.13;;;7.97;;
19883;SDS011;10104;50.732;10.174;2023-11-21T13:20:11;16.17;;;8.80;;
19883;SDS011;10104;50.732;10.174;2023-11-21T13:23:00;15.50;;;7.93;;
19883;SDS011;10104;50.732;10.174;2023-11-21T13:25:44;16.80;;;8.70;;
19883;SDS011;10104;50.732;10.174;2023-11-21T13:28:36;15.77;;;8.43;;
19883;SDS011;10104;50.732;10.174;2023-11-21T13:31:17;11.90;;;7.00;;
19883;SDS011;10104;50.732;10.174;2023-11-21T13:34:02;12.93;;;8.30;;
19883;SDS011;10104;50.732;10.174;2023-11-21T13:36:45;13.10;;;7.00;;
19883;SDS011;10104;50.732;10.174;2023-11-21T13:39:25;16.20;;;7.97;;
19883;SDS011;10104;50.732;10.174;2023-11-21T13:42:08;14.97;;;7.97;;
19883;SDS011;10104;50.732;10.174;2023-11-21T13:44:56;17.07;;;7.73;;
19883;SDS011;10104;50.732;10.174;2023-11-21T13:47:37;15.93;;;8.07;;
19883;SDS011;10104;50.732;10.174;2023-11-21T13:50:18;11.90;;;6.60;;
19883;SDS011;10104;50.732;10.174;2023-11-21T13:53:04;11.57;;;6.93;;
19883;SDS011;10104;50.732;10.174;2023-11-21T13:56:01;10.80;;;6.53;;
19883;SDS011;10104;50.732;10.174;2023-11-21T13:58:42;9.53;;;5.63;;
19883;SDS011;10104;50.732;10.174;2023-11-21T14:01:30;12.67;;;6.03;;
19883;SDS011;10104;50.732;10.174;2023-11-21T14:04:10;12.13;;;5.43;;
19883;SDS011;10104;50.732;10.174;2023-11-21T14:06:56;9.57;;;5.70;;
19883;SDS011;10104;50.732;10.174;2023-11-21T14:09:39;10.60;;;5.83;;
19883;SDS011;10104;50.732;10.174;2023-11-21T14:12:24;10.63;;;6.23;;
19883;SDS011;10104;50.732;10.174;2023-11-21T14:15:04;16.60;;;7.00;;
19883;SDS011;10104;50.732;10.174;2023-11-21T14:17:47;12.57;;;6.67;;
19883;SDS011;10104;50.732;10.174;2023-11-21T14:20:27;11.43;;;6.60;;
19883;SDS011;10104;50.732;10.174;2023-11-21T14:23:08;11.30;;;6.70;;
19883;SDS011;10104;50.732;10.174;2023-11-21T14:25:49;14.20;;;7.17;;
19883;SDS011;10104;50.732;10.174;2023-11-21T14:28:31;17.40;;;7.63;;
19883;SDS011;10104;50.732;10.174;2023-11-21T14:31:11;14.67;;;7.90;;
19883;SDS011;10104;50.732;10.174;2023-11-21T14:33:56;16.77;;;8.20;;
19883;SDS011;10104;50.732;10.174;2023-11-21T14:36:37;15.20;;;9.03;;
19883;SDS011;10104;50.732;10.174;2023-11-21T14:39:18;17.50;;;8.73;;
19883;SDS011;10104;50.732;10.174;2023-11-21T14:42:08;13.10;;;7.70;;
19883;SDS011;10104;50.732;10.174;2023-11-21T14:44:48;18.57;;;7.67;;
19883;SDS011;10104;50.732;10.174;2023-11-21T14:47:28;14.97;;;7.67;;
19883;SDS011;10104;50.732;10.174;2023-11-21T14:50:08;14.80;;;7.60;;
19883;SDS011;10104;50.732;10.174;2023-11-21T14:53:10;14.53;;;8.23;;
19883;SDS011;10104;50.732;10.174;2023-11-21T14:55:53;12.77;;;7.73;;
19883;SDS011;10104;50.732;10.174;2023-11-21T14:58:37;13.87;;;8.00;;
19883;SDS011;10104;50.732;10.174;2023-11-21T15:01:19;14.20;;;8.70;;
19883;SDS011;10104;50.732;10.174;2023-11-21T15:04:13;13.10;;;7.27;;
19883;SDS011;10104;50.732;10.174;2023-11-21T15:07:11;14.80;;;7.90;;
19883;SDS011;10104;50.732;10.174;2023-11-21T15:09:52;15.47;;;6.77;;
19883;SDS011;10104;50.732;10.174;2023-11-21T15:12:33;6.23;;;4.17;;
19883;SDS011;10104;50.732;10.174;2023-11-21T15:15:17;5.77;;;4.10;;
19883;SDS011;10104;50.732;10.174;2023-11-21T15:17:58;4.47;;;3.17;;
19883;SDS011;10104;50.732;10.174;2023-11-21T15:20:39;3.80;;;2.90;;
19883;SDS011;10104;50.732;10.174;2023-11-21T15:23:20;6.67;;;4.73;;
19883;SDS011;10104;50.732;10.174;2023-11-21T15:26:00;17.53;;;9.43;;
19883;SDS011;10104;50.732;10.174;2023-11-21T15:28:42;23.37;;;12.90;;
19883;SDS011;10104;50.732;10.174;2023-11-21T15:31:22;24.70;;;14.30;;
19883;SDS011;10104;50.732;10.174;2023-11-21T15:34:05;29.63;;;17.37;;
19883;SDS011;10104;50.732;10.174;2023-11-21T15:36:46;24.07;;;15.43;;
19883;SDS011;10104;50.732;10.174;2023-11-21T15:39:28;13.93;;;11.10;;
19883;SDS011;10104;50.732;10.174;2023-11-21T15:42:10;5.23;;;3.97;;
19883;SDS011;10104;50.732;10.174;2023-11-21T15:44:50;5.03;;;3.37;;
19883;SDS011;10104;50.732;10.174;2023-11-21T15:47:31;4.53;;;3.10;;
19883;SDS011;10104;50.732;10.174;2023-11-21T15:50:11;5.03;;;3.40;;
19883;SDS011;10104;50.732;10.174;2023-11-21T15:52:53;2.20;;;2.00;;
19883;SDS011;10104;50.732;10.174;2023-11-21T15:55:37;3.13;;;2.13;;
19883;SDS011;10104;50.732;10.174;2023-11-21T15:58:22;6.67;;;3.30;;
19883;SDS011;10104;50.732;10.174;2023-11-21T16:01:02;2.20;;;1.40;;
19883;SDS011;10104;50.732;10.174;2023-11-21T16:03:43;12.10;;;6.87;;